Time;durP1;ratioP1;P1;durP2;ratioP2;P2;SDS_P1;SDS_P2;PMS_P1;PMS_P2;Temp;Humidity;BMP_temperature;BMP_pressure;BME280_temperature;BME280_humidity;BME280_pressure;Samples;Min_cycle;Max_cycle;Signal;HPM_P1;HPM_P2
2021/04/01 00:01:01;;;;;;;12.32;8.65;;;16.4;75.9;;;;;;;;;
2021/04/01 00:02:01;;;;;;;11.3;8.43;;;16.4;76.7;;;;;;;;;
2021/04/01 00:03:01;;;;;;;13.4;9.05;;;16.4;76.5;;;;;;;;;
2021/04/01 00:03:16;;;;;;;13.4;9.05;;;16.4;76.5;;;;;;;;;
2021/04/01 00:04:01;;;;;;;14.05;9.23;;;16.3;76.6;;;;;;;;;
2021/04/01 00:04:17;;;;;;;14.05;9.23;;;16.3;76.6;;;;;;;;;
2021/04/01 00:05:01;;;;;;;14.8;9.3;;;16.3;76.7;;;;;;;;;
2021/04/01 00:05:14;;;;;;;14.8;9.3;;;16.3;76.7;;;;;;;;;
2021/04/01 00:05:29;;;;;;;12.05;8.8;;;16.4;76.7;;;;;;;;;
2021/04/01 00:06:01;;;;;;;12.05;8.8;;;16.4;76.7;;;;;;;;;
2021/04/01 00:06:15;;;;;;;12.05;8.8;;;16.4;76.7;;;;;;;;;
2021/04/01 00:06:31;;;;;;;11.9;8.48;;;16.4;76.5;;;;;;;;;
2021/04/01 00:07:01;;;;;;;11.9;8.48;;;16.4;76.5;;;;;;;;;
2021/04/01 00:07:17;;;;;;;11.9;8.48;;;16.4;76.5;;;;;;;;;
2021/04/01 00:07:27;;;;;;;15;9.68;;;16.4;76.4;;;;;;;;;
2021/04/01 00:07:42;;;;;;;15;9.68;;;16.4;76.4;;;;;;;;;
2021/04/01 00:08:01;;;;;;;15;9.68;;;16.4;76.4;;;;;;;;;
2021/04/01 00:08:13;;;;;;;15;9.68;;;16.4;76.4;;;;;;;;;
2021/04/01 00:08:28;;;;;;;12.6;8.9;;;16.4;76.4;;;;;;;;;
2021/04/01 00:08:44;;;;;;;12.6;8.9;;;16.4;76.4;;;;;;;;;
2021/04/01 00:09:01;;;;;;;12.6;8.9;;;16.4;76.4;;;;;;;;;
2021/04/01 00:09:14;;;;;;;12.6;8.9;;;16.4;76.4;;;;;;;;;
2021/04/01 00:09:30;;;;;;;11.25;8.85;;;16.4;76.4;;;;;;;;;
2021/04/01 00:09:40;;;;;;;11.25;8.85;;;16.4;76.4;;;;;;;;;
2021/04/01 00:09:55;;;;;;;11.25;8.85;;;16.4;76.4;;;;;;;;;
2021/04/01 00:10:02;;;;;;;11.25;8.85;;;16.4;76.4;;;;;;;;;
2021/04/01 00:10:16;;;;;;;11.25;8.85;;;16.4;76.4;;;;;;;;;
2021/04/01 00:10:26;;;;;;;13.77;9.65;;;16.4;76.5;;;;;;;;;
2021/04/01 00:10:41;;;;;;;13.77;9.65;;;16.4;76.5;;;;;;;;;
2021/04/01 00:10:57;;;;;;;13.77;9.65;;;16.4;76.5;;;;;;;;;
2021/04/01 00:11:02;;;;;;;13.77;9.65;;;16.4;76.5;;;;;;;;;
2021/04/01 00:11:12;;;;;;;13.77;9.65;;;16.4;76.5;;;;;;;;;
2021/04/01 00:11:28;;;;;;;17.98;9.57;;;16.4;76.4;;;;;;;;;
2021/04/01 00:11:43;;;;;;;17.98;9.57;;;16.4;76.4;;;;;;;;;
2021/04/01 00:11:53;;;;;;;17.98;9.57;;;16.4;76.4;;;;;;;;;
2021/04/01 00:12:02;;;;;;;17.98;9.57;;;16.4;76.4;;;;;;;;;
2021/04/01 00:12:08;;;;;;;17.98;9.57;;;16.4;76.4;;;;;;;;;
2021/04/01 00:12:19;;;;;;;17.98;9.57;;;16.4;76.4;;;;;;;;;
2021/04/01 00:12:29;;;;;;;16.17;10;;;16.4;76.5;;;;;;;;;
2021/04/01 00:12:39;;;;;;;16.17;10;;;16.4;76.5;;;;;;;;;
2021/04/01 00:12:54;;;;;;;16.17;10;;;16.4;76.5;;;;;;;;;
2021/04/01 00:13:02;;;;;;;16.17;10;;;16.4;76.5;;;;;;;;;
2021/04/01 00:13:10;;;;;;;16.17;10;;;16.4;76.5;;;;;;;;;
2021/04/01 00:13:15;;;;;;;16.17;10;;;16.4;76.5;;;;;;;;;
2021/04/01 00:13:25;;;;;;;13.82;10;;;16.4;76.5;;;;;;;;;
2021/04/01 00:13:41;;;;;;;13.82;10;;;16.4;76.5;;;;;;;;;
2021/04/01 00:13:56;;;;;;;13.82;10;;;16.4;76.5;;;;;;;;;
2021/04/01 00:14:03;;;;;;;13.82;10;;;16.4;76.5;;;;;;;;;
2021/04/01 00:14:06;;;;;;;13.82;10;;;16.4;76.5;;;;;;;;;
2021/04/01 00:14:20;;;;;;;13.82;10;;;16.4;76.5;;;;;;;;;
2021/04/01 00:14:34;;;;;;;14.6;9.45;;;16.4;76.7;;;;;;;;;
2021/04/01 00:14:42;;;;;;;14.6;9.45;;;16.4;76.7;;;;;;;;;
2021/04/01 00:14:54;;;;;;;14.6;9.45;;;16.4;76.7;;;;;;;;;
2021/04/01 00:15:02;;;;;;;14.6;9.45;;;16.4;76.7;;;;;;;;;
2021/04/01 00:15:08;;;;;;;14.6;9.45;;;16.4;76.7;;;;;;;;;
2021/04/01 00:15:13;;;;;;;14.6;9.45;;;16.4;76.7;;;;;;;;;
2021/04/01 00:15:28;;;;;;;12.65;8.15;;;16.4;76.8;;;;;;;;;
2021/04/01 00:15:40;;;;;;;12.65;8.15;;;16.4;76.8;;;;;;;;;
2021/04/01 00:15:58;;;;;;;12.65;8.15;;;16.4;76.8;;;;;;;;;
2021/04/01 00:16:02;;;;;;;12.65;8.15;;;16.4;76.8;;;;;;;;;
2021/04/01 00:16:09;;;;;;;12.65;8.15;;;16.4;76.8;;;;;;;;;
2021/04/01 00:16:17;;;;;;;12.65;8.15;;;16.4;76.8;;;;;;;;;
2021/04/01 00:16:35;;;;;;;13.9;9.45;;;16.3;76.8;;;;;;;;;
2021/04/01 00:16:45;;;;;;;13.9;9.45;;;16.3;76.8;;;;;;;;;
2021/04/01 00:16:55;;;;;;;13.9;9.45;;;16.3;76.8;;;;;;;;;
2021/04/01 00:17:02;;;;;;;13.9;9.45;;;16.3;76.8;;;;;;;;;
2021/04/01 00:17:05;;;;;;;13.9;9.45;;;16.3;76.8;;;;;;;;;
2021/04/01 00:17:16;;;;;;;13.9;9.45;;;16.3;76.8;;;;;;;;;
2021/04/01 00:17:26;;;;;;;16.63;10.4;;;16.3;76.8;;;;;;;;;
2021/04/01 00:17:41;;;;;;;16.63;10.4;;;16.3;76.8;;;;;;;;;
2021/04/01 00:17:51;;;;;;;16.63;10.4;;;16.3;76.8;;;;;;;;;
2021/04/01 00:18:01;;;;;;;16.63;10.4;;;16.3;76.8;;;;;;;;;
2021/04/01 00:18:12;;;;;;;16.63;10.4;;;16.3;76.8;;;;;;;;;
2021/04/01 00:18:17;;;;;;;16.63;10.4;;;16.3;76.8;;;;;;;;;
2021/04/01 00:18:27;;;;;;;14.3;9.48;;;16.3;76.9;;;;;;;;;
2021/04/01 00:18:48;;;;;;;14.3;9.48;;;16.3;76.9;;;;;;;;;
2021/04/01 00:18:58;;;;;;;14.3;9.48;;;16.3;76.9;;;;;;;;;
2021/04/01 00:19:02;;;;;;;14.3;9.48;;;16.3;76.9;;;;;;;;;
2021/04/01 00:19:08;;;;;;;14.3;9.48;;;16.3;76.9;;;;;;;;;
2021/04/01 00:19:13;;;;;;;14.3;9.48;;;16.3;76.9;;;;;;;;;
2021/04/01 00:19:29;;;;;;;13.75;8.73;;;16.3;77.1;;;;;;;;;
2021/04/01 00:19:39;;;;;;;13.75;8.73;;;16.3;77.1;;;;;;;;;
2021/04/01 00:19:54;;;;;;;13.75;8.73;;;16.3;77.1;;;;;;;;;
2021/04/01 00:20:02;;;;;;;13.75;8.73;;;16.3;77.1;;;;;;;;;
2021/04/01 00:20:05;;;;;;;13.75;8.73;;;16.3;77.1;;;;;;;;;
2021/04/01 00:20:15;;;;;;;13.75;8.73;;;16.3;77.1;;;;;;;;;
2021/04/01 00:20:30;;;;;;;11.93;9.15;;;16.2;77.2;;;;;;;;;
2021/04/01 00:20:40;;;;;;;11.93;9.15;;;16.2;77.2;;;;;;;;;
2021/04/01 00:21:01;;;;;;;11.93;9.15;;;16.2;77.2;;;;;;;;;
2021/04/01 00:21:02;;;;;;;11.93;9.15;;;16.2;77.2;;;;;;;;;
2021/04/01 00:21:11;;;;;;;11.93;9.15;;;16.2;77.2;;;;;;;;;
2021/04/01 00:21:16;;;;;;;11.93;9.15;;;16.2;77.2;;;;;;;;;
2021/04/01 00:21:27;;;;;;;13.45;9.6;;;16.2;77.2;;;;;;;;;
2021/04/01 00:21:42;;;;;;;13.45;9.6;;;16.2;77.2;;;;;;;;;
2021/04/01 00:21:52;;;;;;;13.45;9.6;;;16.2;77.2;;;;;;;;;
2021/04/01 00:22:02;;;;;;;13.45;9.6;;;16.2;77.2;;;;;;;;;
2021/04/01 00:22:07;;;;;;;13.45;9.6;;;16.2;77.2;;;;;;;;;
2021/04/01 00:22:18;;;;;;;13.45;9.6;;;16.2;77.2;;;;;;;;;
2021/04/01 00:22:29;;;;;;;14.2;9.38;;;16.2;77.4;;;;;;;;;
2021/04/01 00:22:43;;;;;;;14.2;9.38;;;16.2;77.4;;;;;;;;;
2021/04/01 00:22:54;;;;;;;14.2;9.38;;;16.2;77.4;;;;;;;;;
2021/04/01 00:23:02;;;;;;;14.2;9.38;;;16.2;77.4;;;;;;;;;
2021/04/01 00:23:14;;;;;;;14.2;9.38;;;16.2;77.4;;;;;;;;;
2021/04/01 00:23:14;;;;;;;14.2;9.38;;;16.2;77.4;;;;;;;;;
2021/04/01 00:23:29;;;;;;;15.32;10.38;;;16.2;77.4;;;;;;;;;
2021/04/01 00:23:40;;;;;;;15.32;10.38;;;16.2;77.4;;;;;;;;;
2021/04/01 00:23:56;;;;;;;15.32;10.38;;;16.2;77.4;;;;;;;;;
2021/04/01 00:24:02;;;;;;;15.32;10.38;;;16.2;77.4;;;;;;;;;
2021/04/01 00:24:05;;;;;;;15.32;10.38;;;16.2;77.4;;;;;;;;;
2021/04/01 00:24:15;;;;;;;15.32;10.38;;;16.2;77.4;;;;;;;;;
2021/04/01 00:24:31;;;;;;;17.6;11.32;;;16.1;77.4;;;;;;;;;
2021/04/01 00:24:41;;;;;;;17.6;11.32;;;16.1;77.4;;;;;;;;;
2021/04/01 00:24:56;;;;;;;17.6;11.32;;;16.1;77.4;;;;;;;;;
2021/04/01 00:25:02;;;;;;;17.6;11.32;;;16.1;77.4;;;;;;;;;
2021/04/01 00:25:07;;;;;;;17.6;11.32;;;16.1;77.4;;;;;;;;;
2021/04/01 00:25:17;;;;;;;17.6;11.32;;;16.1;77.4;;;;;;;;;
2021/04/01 00:25:27;;;;;;;14.23;9.77;;;16.1;77.6;;;;;;;;;
2021/04/01 00:25:43;;;;;;;14.23;9.77;;;16.1;77.6;;;;;;;;;
2021/04/01 00:25:53;;;;;;;14.23;9.77;;;16.1;77.6;;;;;;;;;
2021/04/01 00:26:02;;;;;;;14.23;9.77;;;16.1;77.6;;;;;;;;;
2021/04/01 00:26:09;;;;;;;14.23;9.77;;;16.1;77.6;;;;;;;;;
2021/04/01 00:26:13;;;;;;;14.23;9.77;;;16.1;77.6;;;;;;;;;
2021/04/01 00:26:29;;;;;;;15.45;10.18;;;16.2;77.4;;;;;;;;;
2021/04/01 00:26:44;;;;;;;15.45;10.18;;;16.2;77.4;;;;;;;;;
2021/04/01 00:26:54;;;;;;;15.45;10.18;;;16.2;77.4;;;;;;;;;
2021/04/01 00:27:02;;;;;;;15.45;10.18;;;16.2;77.4;;;;;;;;;
2021/04/01 00:27:09;;;;;;;15.45;10.18;;;16.2;77.4;;;;;;;;;
2021/04/01 00:27:15;;;;;;;15.45;10.18;;;16.2;77.4;;;;;;;;;
2021/04/01 00:27:30;;;;;;;16.5;12.07;;;16.2;77.3;;;;;;;;;
2021/04/01 00:27:40;;;;;;;16.5;12.07;;;16.2;77.3;;;;;;;;;
2021/04/01 00:27:56;;;;;;;16.5;12.07;;;16.2;77.3;;;;;;;;;
2021/04/01 00:28:01;;;;;;;16.5;12.07;;;16.2;77.3;;;;;;;;;
2021/04/01 00:28:06;;;;;;;16.5;12.07;;;16.2;77.3;;;;;;;;;
2021/04/01 00:28:16;;;;;;;16.5;12.07;;;16.2;77.3;;;;;;;;;
2021/04/01 00:28:26;;;;;;;16.75;10.02;;;16.2;77.4;;;;;;;;;
2021/04/01 00:28:42;;;;;;;16.75;10.02;;;16.2;77.4;;;;;;;;;
2021/04/01 00:28:57;;;;;;;16.75;10.02;;;16.2;77.4;;;;;;;;;
2021/04/01 00:29:02;;;;;;;16.75;10.02;;;16.2;77.4;;;;;;;;;
2021/04/01 00:29:07;;;;;;;16.75;10.02;;;16.2;77.4;;;;;;;;;
2021/04/01 00:29:17;;;;;;;16.75;10.02;;;16.2;77.4;;;;;;;;;
2021/04/01 00:29:28;;;;;;;16.1;10.82;;;16.1;77.5;;;;;;;;;
2021/04/01 00:29:44;;;;;;;16.1;10.82;;;16.1;77.5;;;;;;;;;
2021/04/01 00:29:53;;;;;;;16.1;10.82;;;16.1;77.5;;;;;;;;;
2021/04/01 00:30:02;;;;;;;16.1;10.82;;;16.1;77.5;;;;;;;;;
2021/04/01 00:30:09;;;;;;;16.1;10.82;;;16.1;77.5;;;;;;;;;
2021/04/01 00:30:14;;;;;;;16.1;10.82;;;16.1;77.5;;;;;;;;;
2021/04/01 00:30:29;;;;;;;12.88;9.68;;;16.2;77.6;;;;;;;;;
2021/04/01 00:30:39;;;;;;;12.88;9.68;;;16.2;77.6;;;;;;;;;
2021/04/01 00:30:55;;;;;;;12.88;9.68;;;16.2;77.6;;;;;;;;;
2021/04/01 00:31:02;;;;;;;12.88;9.68;;;16.2;77.6;;;;;;;;;
2021/04/01 00:31:10;;;;;;;12.88;9.68;;;16.2;77.6;;;;;;;;;
2021/04/01 00:31:15;;;;;;;12.88;9.68;;;16.2;77.6;;;;;;;;;
2021/04/01 00:31:31;;;;;;;13.68;9.88;;;16.2;77.6;;;;;;;;;
2021/04/01 00:31:41;;;;;;;13.68;9.88;;;16.2;77.6;;;;;;;;;
2021/04/01 00:31:56;;;;;;;13.68;9.88;;;16.2;77.6;;;;;;;;;
2021/04/01 00:32:03;;;;;;;13.68;9.88;;;16.2;77.6;;;;;;;;;
2021/04/01 00:32:07;;;;;;;13.68;9.88;;;16.2;77.6;;;;;;;;;
2021/04/01 00:32:17;;;;;;;13.68;9.88;;;16.2;77.6;;;;;;;;;
2021/04/01 00:32:27;;;;;;;13.68;9.88;;;16.2;77.6;;;;;;;;;
2021/04/01 00:32:42;;;;;;;18.38;11.43;;;16.2;77.3;;;;;;;;;
2021/04/01 00:32:53;;;;;;;18.38;11.43;;;16.2;77.3;;;;;;;;;
2021/04/01 00:33:01;;;;;;;18.38;11.43;;;16.2;77.3;;;;;;;;;
2021/04/01 00:33:08;;;;;;;18.38;11.43;;;16.2;77.3;;;;;;;;;
2021/04/01 00:33:13;;;;;;;18.38;11.43;;;16.2;77.3;;;;;;;;;
2021/04/01 00:33:29;;;;;;;16.55;12;;;16.2;77.1;;;;;;;;;
2021/04/01 00:33:44;;;;;;;16.55;12;;;16.2;77.1;;;;;;;;;
2021/04/01 00:33:54;;;;;;;16.55;12;;;16.2;77.1;;;;;;;;;
2021/04/01 00:34:02;;;;;;;16.55;12;;;16.2;77.1;;;;;;;;;
2021/04/01 00:34:09;;;;;;;16.55;12;;;16.2;77.1;;;;;;;;;
2021/04/01 00:34:14;;;;;;;16.55;12;;;16.2;77.1;;;;;;;;;
2021/04/01 00:34:30;;;;;;;16.33;10.65;;;16.2;77.2;;;;;;;;;
2021/04/01 00:34:40;;;;;;;16.33;10.65;;;16.2;77.2;;;;;;;;;
2021/04/01 00:34:55;;;;;;;16.33;10.65;;;16.2;77.2;;;;;;;;;
2021/04/01 00:35:02;;;;;;;16.33;10.65;;;16.2;77.2;;;;;;;;;
2021/04/01 00:35:06;;;;;;;16.33;10.65;;;16.2;77.2;;;;;;;;;
2021/04/01 00:35:16;;;;;;;16.33;10.65;;;16.2;77.2;;;;;;;;;
2021/04/01 00:35:26;;;;;;;16.33;10.65;;;16.2;77.2;;;;;;;;;
2021/04/01 00:35:42;;;;;;;15.93;10.32;;;16.3;77.3;;;;;;;;;
2021/04/01 00:35:57;;;;;;;15.93;10.32;;;16.3;77.3;;;;;;;;;
2021/04/01 00:36:02;;;;;;;15.93;10.32;;;16.3;77.3;;;;;;;;;
2021/04/01 00:36:07;;;;;;;15.93;10.32;;;16.3;77.3;;;;;;;;;
2021/04/01 00:36:12;;;;;;;15.93;10.32;;;16.3;77.3;;;;;;;;;
2021/04/01 00:36:28;;;;;;;15.93;10.32;;;16.3;77.3;;;;;;;;;
2021/04/01 00:36:43;;;;;;;19.05;12.07;;;16.2;77.2;;;;;;;;;
2021/04/01 00:36:53;;;;;;;19.05;12.07;;;16.2;77.2;;;;;;;;;
2021/04/01 00:37:02;;;;;;;19.05;12.07;;;16.2;77.2;;;;;;;;;
2021/04/01 00:37:09;;;;;;;19.05;12.07;;;16.2;77.2;;;;;;;;;
2021/04/01 00:37:14;;;;;;;19.05;12.07;;;16.2;77.2;;;;;;;;;
2021/04/01 00:37:31;;;;;;;16.98;10.85;;;16.3;77.3;;;;;;;;;
2021/04/01 00:37:39;;;;;;;16.98;10.85;;;16.3;77.3;;;;;;;;;
2021/04/01 00:37:55;;;;;;;16.98;10.85;;;16.3;77.3;;;;;;;;;
2021/04/01 00:38:01;;;;;;;16.98;10.85;;;16.3;77.3;;;;;;;;;
2021/04/01 00:38:10;;;;;;;16.98;10.85;;;16.3;77.3;;;;;;;;;
2021/04/01 00:38:15;;;;;;;16.98;10.85;;;16.3;77.3;;;;;;;;;
2021/04/01 00:38:25;;;;;;;16.98;10.85;;;16.3;77.3;;;;;;;;;
2021/04/01 00:38:41;;;;;;;14.45;10.63;;;16.3;77.2;;;;;;;;;
2021/04/01 00:38:56;;;;;;;14.45;10.63;;;16.3;77.2;;;;;;;;;
2021/04/01 00:39:02;;;;;;;14.45;10.63;;;16.3;77.2;;;;;;;;;
2021/04/01 00:39:06;;;;;;;14.45;10.63;;;16.3;77.2;;;;;;;;;
2021/04/01 00:39:17;;;;;;;14.45;10.63;;;16.3;77.2;;;;;;;;;
2021/04/01 00:39:27;;;;;;;14.45;10.63;;;16.3;77.2;;;;;;;;;
2021/04/01 00:39:42;;;;;;;17.1;11.13;;;16.3;77.2;;;;;;;;;
2021/04/01 00:39:52;;;;;;;17.1;11.13;;;16.3;77.2;;;;;;;;;
2021/04/01 00:40:02;;;;;;;17.1;11.13;;;16.3;77.2;;;;;;;;;
2021/04/01 00:40:08;;;;;;;17.1;11.13;;;16.3;77.2;;;;;;;;;
2021/04/01 00:40:13;;;;;;;17.1;11.13;;;16.3;77.2;;;;;;;;;
2021/04/01 00:40:28;;;;;;;17.1;11.13;;;16.3;77.2;;;;;;;;;
2021/04/01 00:40:38;;;;;;;16.02;11.2;;;16.3;77.2;;;;;;;;;
2021/04/01 00:40:54;;;;;;;16.02;11.2;;;16.3;77.2;;;;;;;;;
2021/04/01 00:41:02;;;;;;;16.02;11.2;;;16.3;77.2;;;;;;;;;
2021/04/01 00:41:09;;;;;;;16.02;11.2;;;16.3;77.2;;;;;;;;;
2021/04/01 00:41:14;;;;;;;16.02;11.2;;;16.3;77.2;;;;;;;;;
2021/04/01 00:41:30;;;;;;;16.02;11.2;;;16.3;77.2;;;;;;;;;
2021/04/01 00:41:40;;;;;;;17.48;10.48;;;16.3;77.1;;;;;;;;;
2021/04/01 00:41:55;;;;;;;17.48;10.48;;;16.3;77.1;;;;;;;;;
2021/04/01 00:42:02;;;;;;;17.48;10.48;;;16.3;77.1;;;;;;;;;
2021/04/01 00:42:05;;;;;;;17.48;10.48;;;16.3;77.1;;;;;;;;;
2021/04/01 00:42:16;;;;;;;17.48;10.48;;;16.3;77.1;;;;;;;;;
2021/04/01 00:42:26;;;;;;;17.48;10.48;;;16.3;77.1;;;;;;;;;
2021/04/01 00:42:41;;;;;;;17.33;10.82;;;16.3;77.2;;;;;;;;;
2021/04/01 00:42:52;;;;;;;17.33;10.82;;;16.3;77.2;;;;;;;;;
2021/04/01 00:43:01;;;;;;;17.33;10.82;;;16.3;77.2;;;;;;;;;
2021/04/01 00:43:07;;;;;;;17.33;10.82;;;16.3;77.2;;;;;;;;;
2021/04/01 00:43:12;;;;;;;17.33;10.82;;;16.3;77.2;;;;;;;;;
2021/04/01 00:43:27;;;;;;;17.33;10.82;;;16.3;77.2;;;;;;;;;
2021/04/01 00:43:43;;;;;;;20.13;11.7;;;16.3;77.3;;;;;;;;;
2021/04/01 00:43:53;;;;;;;20.13;11.7;;;16.3;77.3;;;;;;;;;
2021/04/01 00:44:02;;;;;;;20.13;11.7;;;16.3;77.3;;;;;;;;;
2021/04/01 00:44:08;;;;;;;20.13;11.7;;;16.3;77.3;;;;;;;;;
2021/04/01 00:44:16;;;;;;;20.13;11.7;;;16.3;77.3;;;;;;;;;
2021/04/01 00:44:29;;;;;;;20.13;11.7;;;16.3;77.3;;;;;;;;;
2021/04/01 00:44:39;;;;;;;15.3;10.45;;;16.3;77.4;;;;;;;;;
2021/04/01 00:44:54;;;;;;;15.3;10.45;;;16.3;77.4;;;;;;;;;
2021/04/01 00:45:03;;;;;;;15.3;10.45;;;16.3;77.4;;;;;;;;;
2021/04/01 00:45:05;;;;;;;15.3;10.45;;;16.3;77.4;;;;;;;;;
2021/04/01 00:45:15;;;;;;;15.3;10.45;;;16.3;77.4;;;;;;;;;
2021/04/01 00:45:25;;;;;;;15.3;10.45;;;16.3;77.4;;;;;;;;;
2021/04/01 00:45:41;;;;;;;16.7;10.95;;;16.3;77.4;;;;;;;;;
2021/04/01 00:45:56;;;;;;;16.7;10.95;;;16.3;77.4;;;;;;;;;
2021/04/01 00:46:02;;;;;;;16.7;10.95;;;16.3;77.4;;;;;;;;;
2021/04/01 00:46:06;;;;;;;16.7;10.95;;;16.3;77.4;;;;;;;;;
2021/04/01 00:46:16;;;;;;;16.7;10.95;;;16.3;77.4;;;;;;;;;
2021/04/01 00:46:27;;;;;;;16.7;10.95;;;16.3;77.4;;;;;;;;;
2021/04/01 00:46:42;;;;;;;14.8;10.55;;;16.3;77.5;;;;;;;;;
2021/04/01 00:46:52;;;;;;;14.8;10.55;;;16.3;77.5;;;;;;;;;
2021/04/01 00:47:02;;;;;;;14.8;10.55;;;16.3;77.5;;;;;;;;;
2021/04/01 00:47:13;;;;;;;14.8;10.55;;;16.3;77.5;;;;;;;;;
2021/04/01 00:47:18;;;;;;;14.8;10.55;;;16.3;77.5;;;;;;;;;
2021/04/01 00:47:28;;;;;;;14.8;10.55;;;16.3;77.5;;;;;;;;;
2021/04/01 00:47:38;;;;;;;18.17;10.7;;;16.2;77.6;;;;;;;;;
2021/04/01 00:47:54;;;;;;;18.17;10.7;;;16.2;77.6;;;;;;;;;
2021/04/01 00:48:01;;;;;;;18.17;10.7;;;16.2;77.6;;;;;;;;;
2021/04/01 00:48:09;;;;;;;18.17;10.7;;;16.2;77.6;;;;;;;;;
2021/04/01 00:48:14;;;;;;;18.17;10.7;;;16.2;77.6;;;;;;;;;
2021/04/01 00:48:29;;;;;;;18.17;10.7;;;16.2;77.6;;;;;;;;;
2021/04/01 00:48:40;;;;;;;14.05;10.1;;;16.2;77.7;;;;;;;;;
2021/04/01 00:48:55;;;;;;;14.05;10.1;;;16.2;77.7;;;;;;;;;
2021/04/01 00:49:02;;;;;;;14.05;10.1;;;16.2;77.7;;;;;;;;;
2021/04/01 00:49:05;;;;;;;14.05;10.1;;;16.2;77.7;;;;;;;;;
2021/04/01 00:49:16;;;;;;;14.05;10.1;;;16.2;77.7;;;;;;;;;
2021/04/01 00:49:31;;;;;;;14.05;10.1;;;16.2;77.7;;;;;;;;;
2021/04/01 00:49:46;;;;;;;17.42;11.2;;;16.2;77.8;;;;;;;;;
2021/04/01 00:49:51;;;;;;;17.42;11.2;;;16.2;77.8;;;;;;;;;
2021/04/01 00:50:01;;;;;;;17.42;11.2;;;16.2;77.8;;;;;;;;;
2021/04/01 00:50:07;;;;;;;17.42;11.2;;;16.2;77.8;;;;;;;;;
2021/04/01 00:50:12;;;;;;;17.42;11.2;;;16.2;77.8;;;;;;;;;
2021/04/01 00:50:27;;;;;;;17.42;11.2;;;16.2;77.8;;;;;;;;;
2021/04/01 00:50:43;;;;;;;15.4;10.63;;;16.2;78;;;;;;;;;
2021/04/01 00:50:53;;;;;;;15.4;10.63;;;16.2;78;;;;;;;;;
2021/04/01 00:51:02;;;;;;;15.4;10.63;;;16.2;78;;;;;;;;;
2021/04/01 00:51:08;;;;;;;15.4;10.63;;;16.2;78;;;;;;;;;
2021/04/01 00:51:13;;;;;;;15.4;10.63;;;16.2;78;;;;;;;;;
2021/04/01 00:51:29;;;;;;;15.4;10.63;;;16.2;78;;;;;;;;;
2021/04/01 00:51:44;;;;;;;14.15;10.82;;;16.2;78.1;;;;;;;;;
2021/04/01 00:51:59;;;;;;;14.15;10.82;;;16.2;78.1;;;;;;;;;
2021/04/01 00:52:02;;;;;;;14.15;10.82;;;16.2;78.1;;;;;;;;;
2021/04/01 00:52:05;;;;;;;14.15;10.82;;;16.2;78.1;;;;;;;;;
2021/04/01 00:52:17;;;;;;;14.15;10.82;;;16.2;78.1;;;;;;;;;
2021/04/01 00:52:25;;;;;;;14.15;10.82;;;16.2;78.1;;;;;;;;;
2021/04/01 00:52:40;;;;;;;19.63;11.05;;;16.2;78.2;;;;;;;;;
2021/04/01 00:52:56;;;;;;;19.63;11.05;;;16.2;78.2;;;;;;;;;
2021/04/01 00:53:02;;;;;;;19.63;11.05;;;16.2;78.2;;;;;;;;;
2021/04/01 00:53:06;;;;;;;19.63;11.05;;;16.2;78.2;;;;;;;;;
2021/04/01 00:53:16;;;;;;;19.63;11.05;;;16.2;78.2;;;;;;;;;
2021/04/01 00:53:26;;;;;;;19.63;11.05;;;16.2;78.2;;;;;;;;;
2021/04/01 00:53:42;;;;;;;15.27;10.32;;;16.1;78.2;;;;;;;;;
2021/04/01 00:53:57;;;;;;;15.27;10.32;;;16.1;78.2;;;;;;;;;
2021/04/01 00:54:02;;;;;;;15.27;10.32;;;16.1;78.2;;;;;;;;;
2021/04/01 00:54:13;;;;;;;15.27;10.32;;;16.1;78.2;;;;;;;;;
2021/04/01 00:54:18;;;;;;;15.27;10.32;;;16.1;78.2;;;;;;;;;
2021/04/01 00:54:33;;;;;;;15.27;10.32;;;16.1;78.2;;;;;;;;;
2021/04/01 00:54:38;;;;;;;15.8;10.52;;;16.1;78.5;;;;;;;;;
2021/04/01 00:54:54;;;;;;;15.8;10.52;;;16.1;78.5;;;;;;;;;
2021/04/01 00:55:02;;;;;;;15.8;10.52;;;16.1;78.5;;;;;;;;;
2021/04/01 00:55:09;;;;;;;15.8;10.52;;;16.1;78.5;;;;;;;;;
2021/04/01 00:55:14;;;;;;;15.8;10.52;;;16.1;78.5;;;;;;;;;
2021/04/01 00:55:29;;;;;;;15.8;10.52;;;16.1;78.5;;;;;;;;;
2021/04/01 00:55:40;;;;;;;15;9.5;;;16.1;78.4;;;;;;;;;
2021/04/01 00:55:55;;;;;;;15;9.5;;;16.1;78.4;;;;;;;;;
2021/04/01 00:56:02;;;;;;;15;9.5;;;16.1;78.4;;;;;;;;;
2021/04/01 00:56:10;;;;;;;15;9.5;;;16.1;78.4;;;;;;;;;
2021/04/01 00:56:15;;;;;;;15;9.5;;;16.1;78.4;;;;;;;;;
2021/04/01 00:56:31;;;;;;;15;9.5;;;16.1;78.4;;;;;;;;;
2021/04/01 00:56:46;;;;;;;14.7;10.7;;;16.1;78.5;;;;;;;;;
2021/04/01 00:56:51;;;;;;;14.7;10.7;;;16.1;78.5;;;;;;;;;
2021/04/01 00:57:03;;;;;;;14.7;10.7;;;16.1;78.5;;;;;;;;;
2021/04/01 00:57:07;;;;;;;14.7;10.7;;;16.1;78.5;;;;;;;;;
2021/04/01 00:57:17;;;;;;;14.7;10.7;;;16.1;78.5;;;;;;;;;
2021/04/01 00:57:27;;;;;;;14.7;10.7;;;16.1;78.5;;;;;;;;;
2021/04/01 00:57:43;;;;;;;15.77;10.35;;;16;78.4;;;;;;;;;
2021/04/01 00:57:53;;;;;;;15.77;10.35;;;16;78.4;;;;;;;;;
2021/04/01 00:58:02;;;;;;;15.77;10.35;;;16;78.4;;;;;;;;;
2021/04/01 00:58:08;;;;;;;15.77;10.35;;;16;78.4;;;;;;;;;
2021/04/01 00:58:13;;;;;;;15.77;10.35;;;16;78.4;;;;;;;;;
2021/04/01 00:58:29;;;;;;;15.77;10.35;;;16;78.4;;;;;;;;;
2021/04/01 00:58:44;;;;;;;15.75;10.25;;;16;78.5;;;;;;;;;
2021/04/01 00:58:59;;;;;;;15.75;10.25;;;16;78.5;;;;;;;;;
2021/04/01 00:59:02;;;;;;;15.75;10.25;;;16;78.5;;;;;;;;;
2021/04/01 00:59:04;;;;;;;15.75;10.25;;;16;78.5;;;;;;;;;
2021/04/01 00:59:15;;;;;;;15.75;10.25;;;16;78.5;;;;;;;;;
2021/04/01 00:59:30;;;;;;;15.75;10.25;;;16;78.5;;;;;;;;;
2021/04/01 00:59:40;;;;;;;16.95;11.07;;;16;78.7;;;;;;;;;
2021/04/01 00:59:56;;;;;;;16.95;11.07;;;16;78.7;;;;;;;;;
2021/04/01 01:00:02;;;;;;;16.95;11.07;;;16;78.7;;;;;;;;;
2021/04/01 01:00:06;;;;;;;16.95;11.07;;;16;78.7;;;;;;;;;
2021/04/01 01:00:16;;;;;;;16.95;11.07;;;16;78.7;;;;;;;;;
2021/04/01 01:00:28;;;;;;;16.95;11.07;;;16;78.7;;;;;;;;;
2021/04/01 01:00:42;;;;;;;14.02;10.1;;;16;78.5;;;;;;;;;
2021/04/01 01:01:09;;;;;;;14.02;10.1;;;16;78.5;;;;;;;;;
2021/04/01 01:01:14;;;;;;;14.02;10.1;;;16;78.5;;;;;;;;;
2021/04/01 01:01:25;;;;;;;14.02;10.1;;;16;78.5;;;;;;;;;
2021/04/01 01:01:25;;;;;;;14.02;10.1;;;16;78.5;;;;;;;;;
2021/04/01 01:01:36;;;;;;;14.02;10.1;;;16;78.5;;;;;;;;;
2021/04/01 01:01:45;;;;;;;15.3;10.52;;;16.1;78.4;;;;;;;;;
2021/04/01 01:01:57;;;;;;;15.3;10.52;;;16.1;78.4;;;;;;;;;
2021/04/01 01:02:04;;;;;;;15.3;10.52;;;16.1;78.4;;;;;;;;;
2021/04/01 01:02:09;;;;;;;15.3;10.52;;;16.1;78.4;;;;;;;;;
2021/04/01 01:02:14;;;;;;;15.3;10.52;;;16.1;78.4;;;;;;;;;
2021/04/01 01:02:29;;;;;;;15.3;10.52;;;16.1;78.4;;;;;;;;;
2021/04/01 01:02:40;;;;;;;25.08;11.85;;;16.1;78.5;;;;;;;;;
2021/04/01 01:02:55;;;;;;;25.08;11.85;;;16.1;78.5;;;;;;;;;
2021/04/01 01:03:02;;;;;;;25.08;11.85;;;16.1;78.5;;;;;;;;;
2021/04/01 01:03:20;;;;;;;25.08;11.85;;;16.1;78.5;;;;;;;;;
2021/04/01 01:03:25;;;;;;;25.08;11.85;;;16.1;78.5;;;;;;;;;
2021/04/01 01:03:36;;;;;;;25.08;11.85;;;16.1;78.5;;;;;;;;;
2021/04/01 01:03:51;;;;;;;19.1;10.48;;;16.1;78.5;;;;;;;;;
2021/04/01 01:03:56;;;;;;;19.1;10.48;;;16.1;78.5;;;;;;;;;
2021/04/01 01:04:02;;;;;;;19.1;10.48;;;16.1;78.5;;;;;;;;;
2021/04/01 01:04:12;;;;;;;19.1;10.48;;;16.1;78.5;;;;;;;;;
2021/04/01 01:04:17;;;;;;;19.1;10.48;;;16.1;78.5;;;;;;;;;
2021/04/01 01:04:27;;;;;;;19.1;10.48;;;16.1;78.5;;;;;;;;;
2021/04/01 01:04:42;;;;;;;14.95;10.23;;;16;79;;;;;;;;;
2021/04/01 01:04:53;;;;;;;14.95;10.23;;;16;79;;;;;;;;;
2021/04/01 01:05:01;;;;;;;14.95;10.23;;;16;79;;;;;;;;;
2021/04/01 01:05:08;;;;;;;14.95;10.23;;;16;79;;;;;;;;;
2021/04/01 01:05:13;;;;;;;14.95;10.23;;;16;79;;;;;;;;;
2021/04/01 01:05:39;;;;;;;18.2;10.68;;;16;79.5;;;;;;;;;
2021/04/01 01:05:49;;;;;;;18.2;10.68;;;16;79.5;;;;;;;;;
2021/04/01 01:06:02;;;;;;;18.2;10.68;;;16;79.5;;;;;;;;;
2021/04/01 01:06:04;;;;;;;18.2;10.68;;;16;79.5;;;;;;;;;
2021/04/01 01:06:09;;;;;;;18.2;10.68;;;16;79.5;;;;;;;;;
2021/04/01 01:06:15;;;;;;;18.2;10.68;;;16;79.5;;;;;;;;;
2021/04/01 01:06:30;;;;;;;18.2;10.68;;;16;79.5;;;;;;;;;
2021/04/01 01:06:40;;;;;;;15.63;10.6;;;16;79.7;;;;;;;;;
2021/04/01 01:06:56;;;;;;;15.63;10.6;;;16;79.7;;;;;;;;;
2021/04/01 01:07:03;;;;;;;15.63;10.6;;;16;79.7;;;;;;;;;
2021/04/01 01:07:06;;;;;;;15.63;10.6;;;16;79.7;;;;;;;;;
2021/04/01 01:07:16;;;;;;;15.63;10.6;;;16;79.7;;;;;;;;;
2021/04/01 01:07:26;;;;;;;15.63;10.6;;;16;79.7;;;;;;;;;
2021/04/01 01:07:52;;;;;;;16.08;9.55;;;16;79.9;;;;;;;;;
2021/04/01 01:08:02;;;;;;;16.08;9.55;;;16;79.9;;;;;;;;;
2021/04/01 01:08:02;;;;;;;16.08;9.55;;;16;79.9;;;;;;;;;
2021/04/01 01:08:17;;;;;;;16.08;9.55;;;16;79.9;;;;;;;;;
2021/04/01 01:08:17;;;;;;;16.08;9.55;;;16;79.9;;;;;;;;;
2021/04/01 01:08:28;;;;;;;16.08;9.55;;;16;79.9;;;;;;;;;
2021/04/01 01:08:43;;;;;;;15.6;9.63;;;15.9;80.2;;;;;;;;;
2021/04/01 01:08:53;;;;;;;15.6;9.63;;;15.9;80.2;;;;;;;;;
2021/04/01 01:09:02;;;;;;;15.6;9.63;;;15.9;80.2;;;;;;;;;
2021/04/01 01:09:09;;;;;;;15.6;9.63;;;15.9;80.2;;;;;;;;;
2021/04/01 01:09:14;;;;;;;15.6;9.63;;;15.9;80.2;;;;;;;;;
2021/04/01 01:09:29;;;;;;;15.6;9.63;;;15.9;80.2;;;;;;;;;
2021/04/01 01:09:39;;;;;;;14.73;10.73;;;15.9;80.1;;;;;;;;;
2021/04/01 01:10:01;;;;;;;14.73;10.73;;;15.9;80.1;;;;;;;;;
2021/04/01 01:10:05;;;;;;;14.73;10.73;;;15.9;80.1;;;;;;;;;
2021/04/01 01:10:15;;;;;;;14.73;10.73;;;15.9;80.1;;;;;;;;;
2021/04/01 01:10:15;;;;;;;14.73;10.73;;;15.9;80.1;;;;;;;;;
2021/04/01 01:10:31;;;;;;;14.73;10.73;;;15.9;80.1;;;;;;;;;
2021/04/01 01:10:41;;;;;;;15.35;10.48;;;15.9;81;;;;;;;;;
2021/04/01 01:10:56;;;;;;;15.35;10.48;;;15.9;81;;;;;;;;;
2021/04/01 01:11:03;;;;;;;15.35;10.48;;;15.9;81;;;;;;;;;
2021/04/01 01:11:06;;;;;;;15.35;10.48;;;15.9;81;;;;;;;;;
2021/04/01 01:11:16;;;;;;;15.35;10.48;;;15.9;81;;;;;;;;;
2021/04/01 01:11:29;;;;;;;15.35;10.48;;;15.9;81;;;;;;;;;
2021/04/01 01:11:42;;;;;;;14.68;10.32;;;15.9;80.2;;;;;;;;;
2021/04/01 01:11:52;;;;;;;14.68;10.32;;;15.9;80.2;;;;;;;;;
2021/04/01 01:12:03;;;;;;;14.68;10.32;;;15.9;80.2;;;;;;;;;
2021/04/01 01:12:18;;;;;;;14.68;10.32;;;15.9;80.2;;;;;;;;;
2021/04/01 01:12:18;;;;;;;14.68;10.32;;;15.9;80.2;;;;;;;;;
2021/04/01 01:12:28;;;;;;;14.68;10.32;;;15.9;80.2;;;;;;;;;
2021/04/01 01:12:44;;;;;;;17.85;10.55;;;16;80.2;;;;;;;;;
2021/04/01 01:12:54;;;;;;;17.85;10.55;;;16;80.2;;;;;;;;;
2021/04/01 01:13:02;;;;;;;17.85;10.55;;;16;80.2;;;;;;;;;
2021/04/01 01:13:09;;;;;;;17.85;10.55;;;16;80.2;;;;;;;;;
2021/04/01 01:13:14;;;;;;;17.85;10.55;;;16;80.2;;;;;;;;;
2021/04/01 01:13:30;;;;;;;17.85;10.55;;;16;80.2;;;;;;;;;
2021/04/01 01:13:40;;;;;;;18.38;11.93;;;15.9;80.2;;;;;;;;;
2021/04/01 01:13:55;;;;;;;18.38;11.93;;;15.9;80.2;;;;;;;;;
2021/04/01 01:14:02;;;;;;;18.38;11.93;;;15.9;80.2;;;;;;;;;
2021/04/01 01:14:06;;;;;;;18.38;11.93;;;15.9;80.2;;;;;;;;;
2021/04/01 01:14:16;;;;;;;18.38;11.93;;;15.9;80.2;;;;;;;;;
2021/04/01 01:14:31;;;;;;;18.38;11.93;;;15.9;80.2;;;;;;;;;
2021/04/01 01:14:41;;;;;;;19.08;10.75;;;15.9;80.3;;;;;;;;;